Time;durP1;ratioP1;P1;durP2;ratioP2;P2;SDS_P1;SDS_P2;PMS_P1;PMS_P2;Temp;Humidity;BMP_temperature;BMP_pressure;BME280_temperature;BME280_humidity;BME280_pressure;Samples;Min_cycle;Max_cycle;Signal;HPM_P1;HPM_P2
2021/05/18 00:02:25;;;;;;;6.90;4.90;;;;;;;18.63;61.21;98638.50;5060957;28;20029;-78
2021/05/18 00:04:50;;;;;;;6.28;5.68;;;;;;;18.68;61.27;98633.19;5061031;28;20070;-80
2021/05/18 00:07:20;;;;;;;8.38;5.13;;;;;;;18.62;61.34;98622.72;5043201;28;20423;-77
2021/05/18 00:12:31;;;;;;;6.90;5.15;;;;;;;18.65;61.65;98657.75;5046290;28;20028;-76
2021/05/18 00:14:58;;;;;;;6.25;5.22;;;;;;;18.75;61.49;98661.59;5060845;28;20024;-77
2021/05/18 00:17:24;;;;;;;5.43;4.90;;;;;;;18.55;61.58;98644.22;5065316;28;20023;-77
2021/05/18 00:19:50;;;;;;;6.63;5.68;;;;;;;18.80;61.55;98678.50;5064385;28;20459;-77
2021/05/18 00:22:15;;;;;;;6.72;5.78;;;;;;;18.52;61.58;98619.88;5060690;28;20439;-77
2021/05/18 00:24:41;;;;;;;6.68;5.07;;;;;;;18.81;61.50;98671.28;5060856;28;20095;-77
2021/05/18 00:27:06;;;;;;;6.07;5.18;;;;;;;18.82;61.64;98660.34;5060604;28;20039;-77
2021/05/18 00:29:32;;;;;;;7.40;5.97;;;;;;;18.76;61.43;98660.53;5060806;28;20051;-77
2021/05/18 00:31:57;;;;;;;5.35;4.85;;;;;;;18.82;61.75;98649.66;5042965;28;20020;-76
2021/05/18 00:34:23;;;;;;;6.80;5.38;;;;;;;18.81;61.98;98647.22;5043127;28;20031;-76
2021/05/18 00:36:49;;;;;;;5.95;5.35;;;;;;;18.80;61.81;98634.91;5060724;28;20040;-78
2021/05/18 00:39:15;;;;;;;6.38;5.53;;;;;;;18.79;61.96;98630.63;5060628;28;20028;-81
2021/05/18 00:41:41;;;;;;;6.25;5.65;;;;;;;18.61;61.95;98611.22;5060539;28;20134;-79
2021/05/18 00:44:06;;;;;;;6.85;6.15;;;;;;;18.73;62.16;98643.13;5060571;28;20021;-79
2021/05/18 00:46:32;;;;;;;6.50;5.82;;;;;;;18.63;62.60;98627.81;5060615;28;20028;-79
2021/05/18 00:48:58;;;;;;;6.47;5.80;;;;;;;18.50;62.16;98636.16;5060538;28;20131;-78
2021/05/18 00:51:25;;;;;;;6.53;6.03;;;;;;;18.29;62.45;98615.63;5060613;28;20021;-80
2021/05/18 00:53:51;;;;;;;8.90;7.25;;;;;;;18.58;62.73;98658.97;5042969;28;20025;-79
2021/05/18 00:59:02;;;;;;;8.65;7.30;;;;;;;18.63;62.75;98667.09;5058203;28;20537;-80
2021/05/18 01:01:29;;;;;;;8.82;6.53;;;;;;;18.63;62.45;98659.88;5057412;28;20025;-80
2021/05/18 01:03:55;;;;;;;7.18;6.53;;;;;;;18.31;62.59;98618.84;5057214;28;20411;-79
2021/05/18 01:09:13;;;;;;;7.97;7.23;;;;;;;18.43;63.32;98644.38;5057203;28;20037;-78
2021/05/18 01:11:41;;;;;;;7.75;6.72;;;;;;;18.30;62.99;98615.38;5057326;28;20017;-80
2021/05/18 01:14:15;;;;;;;8.18;7.32;;;;;;;18.46;63.08;98666.31;5057375;28;20029;-78
2021/05/18 01:16:44;;;;;;;8.75;7.85;;;;;;;18.11;63.12;98619.44;5057433;28;20021;-78
2021/05/18 01:19:10;;;;;;;7.15;6.55;;;;;;;18.42;63.08;98687.38;5056881;28;20100;-76
2021/05/18 01:21:37;;;;;;;7.78;6.88;;;;;;;18.41;63.29;98691.13;5056805;28;20347;-76
2021/05/18 01:24:03;;;;;;;7.95;6.57;;;;;;;18.33;63.18;98679.00;5039156;28;20029;-77
2021/05/18 01:26:31;;;;;;;7.22;6.25;;;;;;;18.20;63.22;98650.00;5056990;28;20350;-76
2021/05/18 01:28:56;;;;;;;8.18;6.35;;;;;;;18.34;63.18;98675.28;5039007;28;20058;-77
2021/05/18 01:31:25;;;;;;;7.10;6.40;;;;;;;18.41;63.14;98694.59;5039138;28;20017;-77
2021/05/18 01:33:53;;;;;;;7.65;6.88;;;;;;;18.40;63.12;98706.34;5056684;28;20025;-76
2021/05/18 01:36:21;;;;;;;9.57;8.05;;;;;;;18.33;63.40;98715.63;5056572;28;20025;-76
2021/05/18 01:44:09;;;;;;;6.97;6.35;;;;;;;18.29;63.29;98722.50;5056678;28;20039;-76
2021/05/18 01:46:34;;;;;;;8.00;6.70;;;;;;;18.17;63.52;98698.56;5056448;28;20036;-77
2021/05/18 01:49:08;;;;;;;7.32;6.47;;;;;;;18.27;63.53;98728.09;5056157;28;20049;-76
2021/05/18 01:51:55;;;;;;;6.85;5.63;;;;;;;18.33;63.87;98743.16;5056506;28;20017;-77
2021/05/18 01:54:30;;;;;;;7.05;5.25;;;;;;;18.32;63.47;98749.53;5056352;28;20339;-75
2021/05/18 01:59:28;;;;;;;7.78;6.53;;;;;;;18.18;63.37;98734.13;5056233;28;20033;-77
2021/05/18 02:01:57;;;;;;;8.63;7.72;;;;;;;17.53;63.60;98643.97;5059736;28;20024;-77
2021/05/18 02:04:35;;;;;;;8.38;7.03;;;;;;;18.20;63.68;98767.56;5041850;28;20028;-77
2021/05/18 02:07:10;;;;;;;9.27;6.72;;;;;;;17.88;64.39;98721.97;5038327;28;20163;-75
2021/05/18 02:09:36;;;;;;;8.68;6.93;;;;;;;18.01;64.28;98752.84;5056134;28;20473;-76
2021/05/18 02:12:03;;;;;;;8.43;7.10;;;;;;;17.39;64.91;98668.31;5055433;28;20079;-79
2021/05/18 02:14:30;;;;;;;9.70;8.00;;;;;;;17.56;65.06;98692.31;5055954;28;20036;-79
2021/05/18 02:17:28;;;;;;;12.38;8.38;;;;;;;17.82;65.67;98738.94;5038177;28;20107;-80
2021/05/18 02:25:08;;;;;;;9.90;8.10;;;;;;;17.69;66.41;98729.41;5055754;28;20465;-78
2021/05/18 02:27:34;;;;;;;9.90;7.38;;;;;;;17.94;66.52;98763.72;5055749;28;20024;-81
2021/05/18 02:30:00;;;;;;;9.27;7.18;;;;;;;18.09;66.85;98809.34;5055617;28;20017;-77
2021/05/18 02:32:27;;;;;;;8.43;7.53;;;;;;;17.47;67.08;98707.94;5055760;28;20017;-80
2021/05/18 02:34:53;;;;;;;10.52;8.55;;;;;;;17.63;67.34;98735.69;5055517;28;20017;-78
2021/05/18 02:37:20;;;;;;;7.43;6.72;;;;;;;17.72;67.33;98738.78;5055545;28;20029;-80
2021/05/18 02:39:45;;;;;;;8.30;6.63;;;;;;;18.02;67.65;98779.31;5037804;28;20021;-78
2021/05/18 02:42:11;;;;;;;7.75;6.05;;;;;;;18.05;67.59;98776.16;5055284;28;20408;-78
2021/05/18 02:50:07;;;;;;;7.80;7.05;;;;;;;17.59;67.76;98680.34;5055291;28;20036;-79
2021/05/18 02:52:33;;;;;;;9.55;6.80;;;;;;;17.81;67.80;98709.81;5055274;28;20013;-78
2021/05/18 02:54:59;;;;;;;9.40;6.60;;;;;;;18.10;68.00;98786.13;5055109;28;20025;-79
2021/05/18 02:57:35;;;;;;;8.63;6.60;;;;;;;17.61;68.17;98718.28;5037498;28;20442;-75
2021/05/18 03:00:11;;;;;;;8.60;6.57;;;;;;;18.09;68.08;98797.84;5055157;28;20028;-81
2021/05/18 03:02:36;;;;;;;6.97;6.28;;;;;;;18.12;68.22;98789.34;5055217;28;20029;-80
2021/05/18 03:05:03;;;;;;;7.20;5.93;;;;;;;17.73;68.04;98730.53;5054930;28;20504;-81
2021/05/18 03:07:28;;;;;;;8.05;6.90;;;;;;;18.14;68.26;98807.81;5037309;28;20066;-79
2021/05/18 03:09:54;;;;;;;7.88;6.30;;;;;;;18.08;68.05;98825.63;5054994;28;20020;-80
2021/05/18 03:12:20;;;;;;;8.77;6.70;;;;;;;17.52;68.44;98738.44;5037179;28;20070;-80
2021/05/18 03:14:45;;;;;;;9.10;6.28;;;;;;;17.99;68.41;98805.72;5054790;28;20154;-80
2021/05/18 03:17:11;;;;;;;6.90;5.45;;;;;;;18.10;68.58;98834.19;5054710;28;20436;-82
2021/05/18 03:19:36;;;;;;;6.95;5.75;;;;;;;17.86;68.71;98790.03;5037151;28;20465;-79
2021/05/18 03:22:02;;;;;;;6.93;5.28;;;;;;;18.06;68.69;98836.53;5036325;28;20037;-79
2021/05/18 03:24:27;;;;;;;6.65;5.50;;;;;;;18.05;68.83;98853.63;5037087;28;20113;-76
2021/05/18 03:26:53;;;;;;;7.22;5.97;;;;;;;17.83;68.75;98809.16;5054832;28;20025;-78
2021/05/18 03:34:36;;;;;;;6.43;5.68;;;;;;;17.90;69.03;98842.69;5055038;28;20063;-77
2021/05/18 03:37:18;;;;;;;6.95;5.22;;;;;;;17.91;69.13;98843.50;5054502;28;20075;-76
2021/05/18 03:39:46;;;;;;;9.57;5.63;;;;;;;17.40;69.28;98765.19;5054610;28;20025;-79
2021/05/18 03:42:16;;;;;;;7.05;6.07;;;;;;;17.71;68.88;98804.72;5036561;28;20033;-80
2021/05/18 04:12:06;;;;;;;7.40;6.28;;;;;;;17.79;68.70;98815.00;5054462;28;20027;-77
2021/05/18 04:17:27;;;;;;;8.38;6.47;;;;;;;18.07;68.96;98866.75;5045348;28;20400;-78
2021/05/18 04:22:32;;;;;;;8.48;7.63;;;;;;;18.04;68.58;98848.53;5055395;28;20033;-80
2021/05/18 04:25:28;;;;;;;7.63;6.88;;;;;;;18.10;68.90;98864.41;5055103;28;20060;-80
2021/05/18 04:52:09;;;;;;;8.98;8.02;;;;;;;18.46;67.97;98880.97;5059064;28;20021;-82
2021/05/18 05:08:30;;;;;;;2.90;2.45;;;;;;;18.16;64.30;98821.72;5056768;28;20040;-78
2021/05/18 05:16:05;;;;;;;2.47;1.50;;;;;;;18.32;60.26;98844.94;5052033;28;20063;-80
2021/05/18 05:18:31;;;;;;;2.72;1.30;;;;;;;18.03;59.21;98809.50;5047158;28;20028;-78
2021/05/18 05:20:57;;;;;;;2.95;1.98;;;;;;;17.90;59.05;98786.63;5057197;28;20021;-79
2021/05/18 05:23:23;;;;;;;1.70;1.60;;;;;;;18.52;58.65;98879.97;5039993;28;20057;-78
2021/05/18 05:25:49;;;;;;;4.38;1.83;;;;;;;18.41;58.75;98865.66;5056927;28;20048;-75
2021/05/18 05:28:14;;;;;;;2.42;1.75;;;;;;;17.68;58.22;98724.31;5056685;28;20099;-76
2021/05/18 05:30:40;;;;;;;1.90;1.70;;;;;;;18.60;58.48;98886.81;5039517;28;20102;-78
2021/05/18 05:33:05;;;;;;;2.50;2.08;;;;;;;18.38;58.75;98812.69;5047537;28;20025;-77
2021/05/18 05:35:31;;;;;;;2.25;1.92;;;;;;;18.68;59.09;98855.13;5036761;28;20036;-77
2021/05/18 05:37:57;;;;;;;2.90;2.28;;;;;;;18.38;58.56;98810.03;5048844;28;20091;-78
2021/05/18 05:40:22;;;;;;;3.35;2.20;;;;;;;18.70;58.74;98857.56;5053575;28;20032;-77
2021/05/18 05:42:48;;;;;;;2.75;1.63;;;;;;;18.42;58.17;98819.16;5048023;28;20095;-77
2021/05/18 05:45:14;;;;;;;3.40;2.88;;;;;;;18.76;58.11;98864.59;5018348;28;20131;-77
2021/05/18 05:47:39;;;;;;;2.90;2.60;;;;;;;18.63;57.95;98819.50;5024337;28;20410;-76
2021/05/18 05:50:05;;;;;;;2.67;2.15;;;;;;;18.82;57.41;98844.06;5032972;28;20028;-76
2021/05/18 05:52:32;;;;;;;2.60;2.08;;;;;;;18.73;57.13;98822.31;5043728;28;20028;-78
2021/05/18 05:54:58;;;;;;;3.17;1.50;;;;;;;18.48;56.69;98779.94;5038789;28;20035;-76
2021/05/18 05:57:23;;;;;;;3.67;2.10;;;;;;;18.82;56.61;98846.75;5036643;28;20104;-77
2021/05/18 05:59:49;;;;;;;3.90;2.00;;;;;;;18.72;56.22;98823.34;5036419;28;20420;-77
2021/05/18 06:02:15;;;;;;;2.95;2.08;;;;;;;18.91;56.14;98851.41;5049088;28;20059;-77
2021/05/18 06:04:40;;;;;;;2.17;1.30;;;;;;;18.82;55.61;98855.59;5028677;28;20025;-77
2021/05/18 06:07:05;;;;;;;2.33;2.00;;;;;;;18.88;55.93;98864.47;5037105;28;20021;-81
2021/05/18 06:09:32;;;;;;;4.45;2.20;;;;;;;18.69;56.15;98850.59;5018489;28;20041;-78
2021/05/18 06:17:19;;;;;;;7.82;4.20;;;;;;;18.65;56.60;98820.06;5048954;28;20037;-80
2021/05/18 06:49:26;;;;;;;4.22;3.83;;;;;;;19.01;55.67;98889.00;5047915;28;20068;-82
2021/05/18 06:51:52;;;;;;;3.97;2.78;;;;;;;18.75;55.24;98851.47;5027439;28;20033;-78
2021/05/18 06:54:17;;;;;;;4.20;3.17;;;;;;;18.88;55.35;98856.44;5024601;28;20027;-79
2021/05/18 06:56:45;;;;;;;4.78;2.92;;;;;;;18.75;54.67;98844.25;5047026;23;20533;-81
2021/05/18 10:36:08;;;;;;;6.25;1.80;;;;;;;25.75;30.44;98963.88;4881668;29;20439;-80
2021/05/18 10:38:44;;;;;;;4.88;1.70;;;;;;;25.83;30.10;98944.31;4879979;29;20109;-79
2021/05/18 10:41:24;;;;;;;12.60;2.55;;;;;;;25.65;28.87;98910.75;4883809;29;20027;-79
2021/05/18 10:44:02;;;;;;;6.83;1.13;;;;;;;25.46;30.01;98898.28;4884084;29;20041;-79
2021/05/18 10:46:33;;;;;;;3.05;0.90;;;;;;;25.91;29.51;98932.81;4882692;29;20775;-77
2021/05/18 10:49:04;;;;;;;2.85;1.00;;;;;;;25.89;29.46;98915.28;4886333;29;20058;-81
2021/05/18 10:51:54;;;;;;;3.23;0.90;;;;;;;25.70;28.10;98903.66;4895486;29;20028;-78
2021/05/18 10:54:26;;;;;;;4.07;0.93;;;;;;;25.53;28.89;98875.22;4898149;29;20051;-83
2021/05/18 10:56:55;;;;;;;1.75;1.10;;;;;;;26.18;28.90;98937.56;4885010;29;20053;-77
2021/05/18 10:59:40;;;;;;;2.97;0.88;;;;;;;26.54;27.25;98945.13;4884467;29;20044;-78
2021/05/18 11:02:06;;;;;;;5.38;1.00;;;;;;;26.27;27.99;98935.81;4890507;29;20459;-79
2021/05/18 11:04:37;;;;;;;4.68;1.00;;;;;;;25.68;27.99;98938.31;4896021;29;20077;-75
2021/05/18 11:07:04;;;;;;;;;;;;;;;24.92;29.07;98943.47;4872870;29;20024;-77
2021/05/18 11:09:31;;;;;;;2.60;0.82;;;;;;;23.96;29.79;98866.84;4890294;29;20321;-78
2021/05/18 11:12:14;;;;;;;2.58;0.80;;;;;;;23.35;30.66;98839.47;4866987;29;20021;-84
2021/05/18 11:14:42;;;;;;;2.28;1.08;;;;;;;23.59;31.18;98906.97;4892227;29;20119;-80
2021/05/18 11:17:10;;;;;;;2.05;1.10;;;;;;;23.52;31.41;98925.31;4894557;29;20127;-81
2021/05/18 11:19:58;;;;;;;2.85;1.05;;;;;;;23.41;30.72;98964.97;4892959;29;20048;-80
2021/05/18 11:25:09;;;;;;;3.63;1.48;;;;;;;23.17;31.72;98937.06;4889310;29;20096;-81
2021/05/18 11:27:35;;;;;;;3.15;1.10;;;;;;;23.04;32.37;98927.69;4895436;29;20037;-77
2021/05/18 11:30:01;;;;;;;2.83;1.23;;;;;;;22.85;32.46;98884.38;4886778;29;20056;-83
2021/05/18 11:32:26;;;;;;;2.17;1.00;;;;;;;23.07;32.15;98839.06;4863307;29;20064;-78
2021/05/18 11:35:02;;;;;;;2.50;0.70;;;;;;;24.41;30.76;98940.44;4880015;29;20028;-83
2021/05/18 11:37:29;;;;;;;2.78;1.00;;;;;;;24.22;30.49;98917.91;4880969;29;20029;-82
2021/05/18 11:40:13;;;;;;;5.10;1.10;;;;;;;24.59;30.14;98945.16;4880575;29;20081;-84
2021/05/18 11:42:38;;;;;;;4.95;0.98;;;;;;;24.94;30.06;98941.28;4885637;29;20029;-77
2021/05/18 11:45:10;;;;;;;3.67;0.80;;;;;;;25.47;29.45;98937.75;4879464;29;20043;-78
2021/05/18 11:47:36;;;;;;;3.75;0.93;;;;;;;25.83;28.98;98940.78;4886919;29;20036;-76
2021/05/18 11:50:04;;;;;;;2.42;0.90;;;;;;;26.04;28.82;98909.66;4884267;29;20078;-80
2021/05/18 11:52:38;;;;;;;2.97;1.23;;;;;;;26.44;28.67;98942.59;4879236;29;20047;-86
2021/05/18 11:55:19;;;;;;;5.10;1.20;;;;;;;26.50;28.02;98930.59;4880207;29;20525;-79
2021/05/18 11:57:44;;;;;;;2.33;1.10;;;;;;;26.41;27.63;98911.50;4882614;29;20035;-82
2021/05/18 12:00:39;;;;;;;4.65;2.13;;;;;;;25.68;27.24;98909.38;4890633;29;20028;-77
2021/05/18 12:03:08;;;;;;;3.08;0.95;;;;;;;25.23;28.70;98903.44;4859903;29;20181;-75
2021/05/18 12:05:34;;;;;;;2.67;0.85;;;;;;;24.99;29.61;98921.53;4883063;29;20435;-81
2021/05/18 12:08:00;;;;;;;3.58;1.33;;;;;;;24.71;30.32;98931.25;4870014;29;20029;-79
2021/05/18 12:10:35;;;;;;;3.22;1.05;;;;;;;23.77;30.92;98833.56;4894395;29;20060;-84
2021/05/18 12:13:02;;;;;;;10.35;2.55;;;;;;;24.16;31.02;98911.75;4862539;29;20155;-77
2021/05/18 12:15:28;;;;;;;2.60;1.00;;;;;;;24.40;30.72;98891.03;4878822;29;20032;-85
2021/05/18 12:17:55;;;;;;;2.20;0.80;;;;;;;25.00;30.05;98896.94;4879664;29;20028;-78
2021/05/18 12:20:22;;;;;;;4.05;0.90;;;;;;;25.48;29.13;98933.94;4878598;29;20052;-81
2021/05/18 12:22:49;;;;;;;3.47;1.00;;;;;;;25.83;29.25;98929.97;4879395;29;20116;-78
2021/05/18 12:25:32;;;;;;;3.40;1.10;;;;;;;26.00;28.27;98914.03;4880353;29;20057;-76
2021/05/18 12:28:06;;;;;;;3.38;0.68;;;;;;;26.27;28.35;98889.78;4869218;29;20043;-77
2021/05/18 12:30:36;;;;;;;2.30;0.70;;;;;;;26.54;27.91;98909.94;4878520;29;20112;-75
2021/05/18 12:33:01;;;;;;;3.65;0.82;;;;;;;26.89;27.74;98935.59;4880583;29;20021;-78
2021/05/18 12:35:27;;;;;;;1.80;0.75;;;;;;;26.85;27.41;98911.00;4877768;29;20096;-76
2021/05/18 12:37:54;;;;;;;1.92;0.75;;;;;;;26.82;27.17;98933.28;4879586;29;20085;-77
2021/05/18 12:40:26;;;;;;;2.55;0.77;;;;;;;27.04;27.06;98924.47;4878360;29;20031;-76
2021/05/18 12:42:51;;;;;;;;;;;;;;;27.09;27.65;98939.84;4887479;29;20355;-78
2021/05/18 12:45:20;;;;;;;4.65;1.15;;;;;;;27.16;27.29;98923.97;4881976;29;19915;-81
2021/05/18 12:47:51;;;;;;;1.30;1.00;;;;;;;27.34;26.46;98930.38;4894673;29;20246;-85
2021/05/18 12:50:18;;;;;;;2.38;0.90;;;;;;;27.34;26.37;98931.19;4888810;29;20037;-80
2021/05/18 12:52:49;;;;;;;4.05;1.70;;;;;;;27.51;26.38;98908.91;4879437;29;20037;-76
2021/05/18 12:55:14;;;;;;;;;;;;;;;27.35;26.34;98899.47;4881996;29;20033;-77
2021/05/18 12:57:58;;;;;;;2.78;1.20;;;;;;;27.57;26.29;98920.44;4882349;29;19918;-77
2021/05/18 13:00:31;;;;;;;3.08;0.80;;;;;;;27.52;24.52;98899.66;4883190;29;20025;-77
2021/05/18 13:03:17;;;;;;;9.38;2.30;;;;;;;27.49;24.41;98897.53;4883104;29;20120;-79
2021/05/18 13:05:52;;;;;;;3.28;0.73;;;;;;;27.70;22.21;98906.06;4883106;29;20402;-76
2021/05/18 13:08:20;;;;;;;0.70;0.60;;;;;;;27.67;22.43;98912.09;4883235;29;20363;-76
2021/05/18 13:13:44;;;;;;;3.70;0.63;;;;;;;27.36;22.22;98869.34;4883364;29;20029;-79
2021/05/18 13:16:30;;;;;;;11.45;1.00;;;;;;;27.78;21.25;98911.56;4882882;29;20443;-78
2021/05/18 13:18:59;;;;;;;3.45;0.52;;;;;;;27.65;21.01;98907.00;4882625;29;20518;-82
2021/05/18 13:21:40;;;;;;;3.38;0.43;;;;;;;27.58;20.59;98920.13;4882640;29;20431;-76
2021/05/18 13:26:38;;;;;;;3.08;0.57;;;;;;;27.68;20.68;98938.91;4881938;29;20487;-79
2021/05/18 13:29:08;;;;;;;2.22;0.40;;;;;;;27.70;20.19;98936.72;4883291;29;20593;-76
2021/05/18 13:31:35;;;;;;;2.35;0.70;;;;;;;27.76;20.37;98926.53;4899928;29;20029;-76
2021/05/18 13:34:01;;;;;;;1.42;0.40;;;;;;;27.79;20.80;98915.09;4895292;29;20032;-77
2021/05/18 13:36:32;;;;;;;3.22;0.57;;;;;;;27.31;20.66;98834.22;4889246;29;20040;-76
2021/05/18 13:38:59;;;;;;;3.15;1.80;;;;;;;27.88;20.68;98891.53;4894889;29;20409;-76
2021/05/18 13:41:25;;;;;;;1.67;0.68;;;;;;;27.75;20.89;98893.19;4889459;29;20051;-80
2021/05/18 13:43:50;;;;;;;5.82;0.70;;;;;;;27.85;21.18;98917.38;4899956;29;20423;-75
2021/05/18 13:46:15;;;;;;;5.65;0.88;;;;;;;27.96;21.18;98919.84;4901344;29;20032;-78
2021/05/18 13:48:41;;;;;;;4.43;0.50;;;;;;;27.85;20.84;98911.94;4899752;29;20085;-78
2021/05/18 13:51:13;;;;;;;1.33;0.60;;;;;;;27.77;21.15;98901.81;4898214;29;20039;-77
2021/05/18 13:53:38;;;;;;;3.00;0.73;;;;;;;27.44;21.21;98884.09;4898998;29;20449;-81
2021/05/18 13:56:04;;;;;;;4.00;0.88;;;;;;;27.76;21.40;98923.84;4878005;29;20068;-81
2021/05/18 13:58:29;;;;;;;4.25;0.40;;;;;;;27.62;21.20;98933.91;4884226;29;20032;-77
2021/05/18 14:00:54;;;;;;;2.00;0.30;;;;;;;27.41;21.43;98892.81;4896386;29;20040;-77
2021/05/18 14:03:20;;;;;;;2.97;1.05;;;;;;;27.53;21.02;98925.66;4888508;29;20044;-78
2021/05/18 14:05:45;;;;;;;0.65;0.43;;;;;;;27.51;20.85;98919.75;4882807;29;20033;-76
2021/05/18 14:08:31;;;;;;;2.35;0.50;;;;;;;27.69;20.85;98942.44;4882123;29;20052;-78
2021/05/18 14:11:01;;;;;;;1.85;0.60;;;;;;;27.48;20.32;98898.63;4870010;29;20450;-78
2021/05/18 14:13:30;;;;;;;11.00;0.90;;;;;;;27.46;20.44;98914.41;4901018;29;20029;-79
2021/05/18 14:15:56;;;;;;;4.07;0.60;;;;;;;27.49;20.18;98946.34;4900654;29;20102;-78
2021/05/18 14:18:21;;;;;;;1.73;0.50;;;;;;;27.16;20.49;98886.03;4891340;23;20024;-81
2021/05/18 14:20:48;;;;;;;1.23;0.43;;;;;;;27.26;20.40;98890.44;4903764;29;20044;-78
2021/05/18 14:23:17;;;;;;;3.30;0.60;;;;;;;27.28;19.52;98924.28;4902596;29;20043;-80
2021/05/18 14:25:42;;;;;;;3.08;0.60;;;;;;;27.03;19.51;98890.38;4902764;29;20028;-80
2021/05/18 14:28:08;;;;;;;2.28;0.55;;;;;;;27.31;19.32;98948.06;4934462;29;20040;-76
2021/05/18 14:30:35;;;;;;;3.45;0.60;;;;;;;26.86;19.21;98893.66;4926284;29;20036;-79
2021/05/18 14:33:00;;;;;;;5.45;0.70;;;;;;;26.82;19.36;98916.22;4923875;29;20031;-79
2021/05/18 14:35:28;;;;;;;7.88;0.88;;;;;;;27.07;19.60;98947.47;4929004;29;20419;-80
2021/05/18 14:38:00;;;;;;;3.83;0.50;;;;;;;26.65;19.91;98891.59;4919174;29;20031;-84
2021/05/18 14:45:57;;;;;;;2.10;1.08;;;;;;;27.12;20.12;98975.28;4935638;29;20377;-82
2021/05/18 14:54:09;;;;;;;9.88;1.05;;;;;;;26.59;20.03;98964.78;4926424;29;20170;-79
2021/05/18 14:56:35;;;;;;;5.78;0.47;;;;;;;26.36;20.46;98938.66;4924075;23;20068;-80
2021/05/18 14:59:00;;;;;;;3.60;0.85;;;;;;;26.42;20.73;98950.22;4918941;29;20107;-77
2021/05/18 15:01:26;;;;;;;3.35;0.30;;;;;;;26.24;20.58;98913.94;4918862;29;20143;-76
2021/05/18 15:03:51;;;;;;;2.78;0.32;;;;;;;26.52;20.55;98986.03;4918852;29;20028;-77
2021/05/18 15:06:17;;;;;;;3.97;0.60;;;;;;;26.23;20.89;98942.91;4917609;29;20123;-77
2021/05/18 15:08:42;;;;;;;2.13;0.50;;;;;;;26.32;21.00;98983.63;4918849;29;20111;-77
2021/05/18 15:11:08;;;;;;;4.80;0.77;;;;;;;25.80;21.26;98935.97;4918666;29;20327;-77
2021/05/18 15:13:34;;;;;;;1.90;0.50;;;;;;;25.99;21.38;98988.16;4917744;29;20020;-79
2021/05/18 15:16:00;;;;;;;2.75;0.52;;;;;;;25.91;21.58;98981.50;4909769;29;20080;-77
2021/05/18 15:18:26;;;;;;;2.58;0.70;;;;;;;25.67;21.48;98953.72;4907744;29;20415;-75
2021/05/18 15:20:51;;;;;;;1.05;0.55;;;;;;;25.53;21.96;98947.41;4894938;29;20128;-81
2021/05/18 15:23:17;;;;;;;1.42;0.40;;;;;;;25.60;22.25;98993.81;4897744;29;20454;-76
2021/05/18 15:25:43;;;;;;;2.83;0.40;;;;;;;25.35;22.90;98967.91;4899013;29;20068;-77
2021/05/18 15:28:08;;;;;;;5.72;0.47;;;;;;;25.03;23.24;98927.97;4893625;29;20033;-83
2021/05/18 15:30:34;;;;;;;2.65;0.50;;;;;;;25.20;23.07;98976.16;4887019;29;20458;-79
2021/05/18 15:32:59;;;;;;;3.63;0.90;;;;;;;25.04;23.60;98983.63;4899658;29;20432;-76
2021/05/18 15:35:25;;;;;;;4.47;0.75;;;;;;;24.95;24.76;98993.41;4899526;29;20025;-79
2021/05/18 15:37:50;;;;;;;3.42;0.55;;;;;;;24.87;25.51;99004.81;4898344;29;20024;-76
2021/05/18 15:40:16;;;;;;;1.55;0.60;;;;;;;24.90;26.06;99018.56;4899334;29;20033;-76
2021/05/18 15:42:41;;;;;;;2.65;0.77;;;;;;;24.90;26.62;99009.66;4899500;29;20029;-79
2021/05/18 15:45:08;;;;;;;2.13;0.40;;;;;;;24.76;26.44;98989.81;4899314;29;20032;-80
2021/05/18 15:47:33;;;;;;;3.05;0.80;;;;;;;24.68;26.95;98975.84;4899408;29;20029;-81
2021/05/18 15:49:59;;;;;;;4.95;0.70;;;;;;;24.89;26.78;99018.84;4899369;29;20043;-79
2021/05/18 15:52:25;;;;;;;1.75;0.70;;;;;;;24.81;27.20;99030.25;4900867;29;20040;-87
2021/05/18 15:54:51;;;;;;;2.35;0.60;;;;;;;24.59;27.46;98992.94;4907479;29;20032;-85
2021/05/18 15:57:17;;;;;;;3.58;0.73;;;;;;;24.24;27.39;98961.56;4897967;29;20432;-86
2021/05/18 15:59:49;;;;;;;4.03;0.70;;;;;;;24.48;27.52;98992.19;4895342;29;20092;-85
2021/05/18 16:02:15;;;;;;;3.00;0.60;;;;;;;24.57;27.71;99041.78;4898441;29;20112;-78
2021/05/18 16:04:41;;;;;;;1.15;0.60;;;;;;;24.15;27.73;98971.34;4899576;29;20032;-88
2021/05/18 16:07:07;;;;;;;4.38;1.20;;;;;;;23.54;28.01;98885.44;4902461;29;20112;-88
2021/05/18 16:09:33;;;;;;;2.50;0.90;;;;;;;23.73;27.85;98902.59;4899158;29;20068;-83
2021/05/18 16:11:59;;;;;;;2.22;0.98;;;;;;;24.50;27.93;99017.00;4898473;29;20068;-84
2021/05/18 16:14:24;;;;;;;2.35;0.50;;;;;;;24.41;27.57;99010.59;4884357;29;20399;-84
2021/05/18 16:16:50;;;;;;;1.48;0.63;;;;;;;24.25;27.43;98998.25;4901062;29;20033;-76
2021/05/18 16:19:16;;;;;;;3.13;0.70;;;;;;;24.09;27.55;98978.69;4904387;29;20044;-88
2021/05/18 16:21:42;;;;;;;3.83;1.05;;;;;;;24.36;27.75;99016.03;4900694;29;20359;-83
2021/05/18 16:24:07;;;;;;;1.80;0.60;;;;;;;24.18;27.65;99001.28;4899715;29;20351;-85
2021/05/18 16:26:33;;;;;;;1.55;0.55;;;;;;;23.93;27.85;98961.00;4899154;29;20103;-76
2021/05/18 16:29:00;;;;;;;4.97;0.82;;;;;;;24.25;27.87;99031.44;4899322;29;20028;-88
2021/05/18 16:31:28;;;;;;;1.63;0.45;;;;;;;24.05;27.88;99018.09;4901676;29;20041;-82
2021/05/18 16:33:54;;;;;;;3.97;0.60;;;;;;;23.92;27.92;99000.63;4902922;29;20498;-82
2021/05/18 16:36:20;;;;;;;1.42;0.50;;;;;;;23.98;27.75;99029.19;4902651;29;20032;-84
2021/05/18 16:38:46;;;;;;;1.20;0.50;;;;;;;24.05;27.66;99034.25;4902837;29;20039;-76
2021/05/18 16:41:12;;;;;;;2.17;0.65;;;;;;;23.54;27.63;98967.06;4902459;29;20448;-83
2021/05/18 16:43:37;;;;;;;2.08;0.77;;;;;;;23.84;27.92;99008.50;4901471;29;20067;-80
2021/05/18 16:46:04;;;;;;;1.83;0.60;;;;;;;23.12;27.71;98902.88;4902660;29;20396;-77
2021/05/18 16:48:31;;;;;;;1.95;0.70;;;;;;;24.02;27.60;99046.41;4902462;29;20039;-76
2021/05/18 16:50:59;;;;;;;3.92;0.40;;;;;;;23.66;27.51;98996.44;4902584;29;20457;-78
2021/05/18 16:53:25;;;;;;;2.33;0.77;;;;;;;23.93;27.56;99036.50;4902548;29;20096;-77
2021/05/18 16:55:51;;;;;;;0.77;0.45;;;;;;;23.69;27.59;99006.66;4902270;29;20072;-78
2021/05/18 16:58:17;;;;;;;0.93;0.70;;;;;;;23.82;27.68;99051.91;4902409;29;20044;-83
2021/05/18 17:00:43;;;;;;;1.25;0.88;;;;;;;23.77;27.77;99044.63;4902555;29;20032;-77
2021/05/18 17:03:09;;;;;;;4.20;1.20;;;;;;;23.26;27.73;98986.59;4902214;29;20039;-77
2021/05/18 17:05:35;;;;;;;4.25;0.98;;;;;;;23.46;27.60;99043.09;4902459;29;20409;-77
2021/05/18 17:08:03;;;;;;;12.70;3.35;;;;;;;23.18;27.68;99006.81;4901127;29;20064;-77
2021/05/18 17:10:31;;;;;;;2.75;0.68;;;;;;;23.38;27.07;99047.16;4900961;29;20363;-86
2021/05/18 17:12:56;;;;;;;1.23;0.43;;;;;;;23.32;26.79;99042.06;4902166;29;20076;-77
2021/05/18 17:15:23;;;;;;;3.17;0.60;;;;;;;23.11;26.47;99041.28;4901958;29;20035;-82
2021/05/18 17:17:52;;;;;;;1.20;0.57;;;;;;;22.46;26.36;98941.47;4900924;29;20028;-81
2021/05/18 17:20:18;;;;;;;1.63;0.40;;;;;;;22.87;26.08;99011.41;4901883;29;20120;-86
2021/05/18 17:22:44;;;;;;;1.13;0.32;;;;;;;22.94;26.15;99055.03;4900986;29;20383;-83
2021/05/18 17:25:10;;;;;;;1.52;0.65;;;;;;;22.58;26.25;98997.69;4900656;29;20035;-77
2021/05/18 17:27:37;;;;;;;0.82;0.40;;;;;;;22.92;26.35;99057.19;4902004;29;20024;-84
2021/05/18 17:30:08;;;;;;;1.25;0.30;;;;;;;22.88;26.44;99060.69;4901900;29;20037;-75
2021/05/18 17:32:34;;;;;;;2.70;0.40;;;;;;;22.86;26.61;99068.22;4900980;29;20036;-75
2021/05/18 17:34:59;;;;;;;1.52;0.57;;;;;;;22.79;26.71;99074.66;4900670;29;20028;-74
2021/05/18 17:37:25;;;;;;;3.50;0.80;;;;;;;22.33;27.01;99025.38;4901633;29;20056;-76
2021/05/18 17:39:50;;;;;;;1.55;0.60;;;;;;;22.67;27.15;99078.69;4901671;29;20040;-78
2021/05/18 17:42:16;;;;;;;1.25;0.52;;;;;;;22.63;27.15;99074.91;4900532;29;20321;-75
2021/05/18 17:44:42;;;;;;;3.20;0.80;;;;;;;22.45;27.22;99058.22;4901603;29;20072;-75
2021/05/18 17:47:08;;;;;;;3.05;0.50;;;;;;;22.42;27.30;99061.44;4901499;29;20043;-75
2021/05/18 17:49:34;;;;;;;4.75;1.13;;;;;;;22.48;27.41;99094.53;4901664;29;20028;-75
2021/05/18 17:52:01;;;;;;;2.28;0.93;;;;;;;22.34;27.40;99074.59;4901522;29;20052;-75
2021/05/18 17:54:26;;;;;;;3.42;1.20;;;;;;;22.46;27.84;99091.31;4900193;29;20439;-75
2021/05/18 17:56:52;;;;;;;2.78;0.80;;;;;;;22.47;27.80;99099.09;4901184;29;20055;-75
2021/05/18 17:59:18;;;;;;;2.13;1.10;;;;;;;22.42;27.85;99099.09;4901371;29;20036;-75